Time;durP1;ratioP1;P1;durP2;ratioP2;P2;SDS_P1;SDS_P2;PMS_P1;PMS_P2;Temp;Humidity;BMP_temperature;BMP_pressure;BME280_temperature;BME280_humidity;BME280_pressure;Samples;Min_cycle;Max_cycle;Signal;HPM_P1;HPM_P2
2023/10/10 00:02:19;;;;;;;16.55;5.07;;;;;;;;;;5146954;27;20267;-70
2023/10/10 00:04:45;;;;;;;16.42;5.10;;;;;;;;;;5145907;27;20250;-70
2023/10/10 00:07:14;;;;;;;13.93;5.20;;;;;;;;;;5143237;27;20261;-70
2023/10/10 00:09:43;;;;;;;19.38;5.30;;;;;;;;;;5143132;27;20198;-70
2023/10/10 00:12:10;;;;;;;14.98;5.03;;;;;;;;;;5146875;27;20242;-70
2023/10/10 00:14:36;;;;;;;16.05;5.03;;;;;;;;;;5146746;27;20197;-70
2023/10/10 00:17:03;;;;;;;16.00;4.95;;;;;;;;;;5143153;27;20219;-70
2023/10/10 00:19:37;;;;;;;11.15;4.75;;;;;;;;;;5142893;27;20199;-70
2023/10/10 00:22:05;;;;;;;15.63;5.53;;;;;;;;;;5146210;27;20261;-70
2023/10/10 00:24:32;;;;;;;15.27;5.43;;;;;;;;;;5146488;27;20266;-70
2023/10/10 00:27:04;;;;;;;13.80;5.22;;;;;;;;;;5143500;27;20213;-70
2023/10/10 00:29:32;;;;;;;17.63;5.60;;;;;;;;;;5142800;27;20198;-70
2023/10/10 00:32:04;;;;;;;16.48;5.30;;;;;;;;;;5145246;27;20288;-70
2023/10/10 00:34:33;;;;;;;17.92;5.65;;;;;;;;;;5146347;27;20635;-70
2023/10/10 00:37:07;;;;;;;16.73;5.78;;;;;;;;;;5143428;27;20217;-70
2023/10/10 00:39:35;;;;;;;14.27;5.13;;;;;;;;;;5142367;27;20563;-70
2023/10/10 00:42:06;;;;;;;17.73;5.55;;;;;;;;;;5145243;27;20218;-70
2023/10/10 00:44:37;;;;;;;17.83;5.20;;;;;;;;;;5146178;27;20246;-70
2023/10/10 00:47:03;;;;;;;15.40;5.65;;;;;;;;;;5143323;27;20218;-70
2023/10/10 00:49:31;;;;;;;14.73;4.70;;;;;;;;;;5142162;27;20247;-70
2023/10/10 00:52:01;;;;;;;19.13;5.57;;;;;;;;;;5144270;27;20235;-70
2023/10/10 00:54:31;;;;;;;16.23;5.43;;;;;;;;;;5145903;27;20316;-70
2023/10/10 00:56:59;;;;;;;20.02;5.60;;;;;;;;;;5143759;27;20253;-70
2023/10/10 00:59:32;;;;;;;13.48;5.15;;;;;;;;;;5142010;27;20195;-70
2023/10/10 01:02:00;;;;;;;14.15;5.85;;;;;;;;;;5144131;27;20566;-70
2023/10/10 01:04:35;;;;;;;16.48;5.57;;;;;;;;;;5145583;27;20670;-70
2023/10/10 01:07:03;;;;;;;12.27;5.22;;;;;;;;;;5143155;27;20245;-70
2023/10/10 01:09:33;;;;;;;15.60;5.38;;;;;;;;;;5141834;27;20233;-70
2023/10/10 01:12:00;;;;;;;19.45;5.00;;;;;;;;;;5144280;27;20194;-70
2023/10/10 01:14:28;;;;;;;14.93;4.57;;;;;;;;;;5145498;27;20199;-70
2023/10/10 01:16:57;;;;;;;14.95;4.85;;;;;;;;;;5143817;27;20229;-70
2023/10/10 01:19:28;;;;;;;10.80;5.18;;;;;;;;;;5141759;27;20210;-70
2023/10/10 01:21:57;;;;;;;18.08;5.55;;;;;;;;;;5142347;27;20203;-70
2023/10/10 01:24:24;;;;;;;19.35;5.25;;;;;;;;;;5145305;27;20206;-70
2023/10/10 01:26:51;;;;;;;13.63;5.03;;;;;;;;;;5144496;27;20218;-70
2023/10/10 01:29:25;;;;;;;13.13;4.95;;;;;;;;;;5141321;27;20614;-70
2023/10/10 01:31:52;;;;;;;16.75;5.43;;;;;;;;;;5142425;27;20293;-70
2023/10/10 01:34:31;;;;;;;21.88;5.55;;;;;;;;;;5145202;27;20280;-70
2023/10/10 01:37:00;;;;;;;14.18;4.60;;;;;;;;;;5143389;27;20696;-70
2023/10/10 01:39:34;;;;;;;12.15;4.82;;;;;;;;;;5146809;27;20612;-70
2023/10/10 01:42:01;;;;;;;12.93;5.40;;;;;;;;;;5142883;27;20687;-70
2023/10/10 01:44:28;;;;;;;17.13;5.30;;;;;;;;;;5141390;27;20198;-70
2023/10/10 01:46:54;;;;;;;14.82;5.25;;;;;;;;;;5142144;27;20790;-70
2023/10/10 01:49:21;;;;;;;17.95;5.07;;;;;;;;;;5144643;27;20194;-70
2023/10/10 01:51:50;;;;;;;15.77;5.65;;;;;;;;;;5144731;27;20653;-70
2023/10/10 01:54:19;;;;;;;21.00;6.35;;;;;;;;;;5133091;27;20239;-70
2023/10/10 01:56:45;;;;;;;18.13;5.78;;;;;;;;;;5141264;27;20218;-70
2023/10/10 01:59:14;;;;;;;16.00;5.38;;;;;;;;;;5144393;27;20198;-70
2023/10/10 02:01:40;;;;;;;18.20;6.05;;;;;;;;;;5144803;27;20220;-70
2023/10/10 02:04:07;;;;;;;15.18;5.63;;;;;;;;;;5142228;27;20819;-70
2023/10/10 02:06:35;;;;;;;16.00;4.95;;;;;;;;;;5140939;27;20253;-70
2023/10/10 02:09:11;;;;;;;14.32;5.45;;;;;;;;;;5142413;27;20202;-70
2023/10/10 02:11:49;;;;;;;16.55;5.55;;;;;;;;;;5144457;27;20199;-70
2023/10/10 02:14:18;;;;;;;17.95;6.03;;;;;;;;;;5132521;27;20194;-70
2023/10/10 02:16:47;;;;;;;19.42;5.50;;;;;;;;;;5140694;27;20275;-70
2023/10/10 02:19:24;;;;;;;17.00;5.47;;;;;;;;;;5143878;27;20198;-70
2023/10/10 02:22:02;;;;;;;13.73;4.95;;;;;;;;;;5144650;27;20227;-70
2023/10/10 02:24:40;;;;;;;14.95;5.28;;;;;;;;;;5134215;27;20218;-70
2023/10/10 02:27:13;;;;;;;12.52;4.72;;;;;;;;;;5142779;27;20225;-70
2023/10/10 02:29:47;;;;;;;12.68;5.25;;;;;;;;;;5144051;27;20225;-70
2023/10/10 02:32:19;;;;;;;13.57;5.28;;;;;;;;;;5141079;27;20839;-70
2023/10/10 02:34:55;;;;;;;19.52;6.65;;;;;;;;;;5143976;27;20209;-70
2023/10/10 02:37:41;;;;;;;15.82;5.55;;;;;;;;;;5137178;27;20209;-70
2023/10/10 02:40:14;;;;;;;18.40;5.45;;;;;;;;;;5146601;27;20202;-70
2023/10/10 02:42:49;;;;;;;16.25;4.82;;;;;;;;;;5148610;27;20217;-70
2023/10/10 02:45:15;;;;;;;14.07;5.53;;;;;;;;;;5145091;27;20585;-70
2023/10/10 02:47:46;;;;;;;13.57;5.97;;;;;;;;;;5144743;27;20662;-70
2023/10/10 02:50:15;;;;;;;8.98;5.03;;;;;;;;;;5147058;27;20690;-70
2023/10/10 02:52:45;;;;;;;14.32;5.25;;;;;;;;;;5148212;27;20200;-70
2023/10/10 02:55:14;;;;;;;12.75;5.05;;;;;;;;;;5145677;27;20308;-70
2023/10/10 02:57:42;;;;;;;11.88;4.63;;;;;;;;;;5144746;27;20202;-70
2023/10/10 03:00:27;;;;;;;18.48;5.00;;;;;;;;;;5146286;27;20202;-70
2023/10/10 03:02:54;;;;;;;18.80;5.78;;;;;;;;;;5148043;27;20213;-70
2023/10/10 03:05:38;;;;;;;11.68;5.25;;;;;;;;;;5136084;27;20218;-70
2023/10/10 03:08:12;;;;;;;14.40;5.07;;;;;;;;;;5145737;27;20201;-70
2023/10/10 03:10:39;;;;;;;17.65;5.43;;;;;;;;;;5147762;27;20198;-70
2023/10/10 03:13:13;;;;;;;16.63;5.13;;;;;;;;;;5146411;27;20228;-70
2023/10/10 03:15:49;;;;;;;14.43;5.00;;;;;;;;;;5144072;27;20221;-70
2023/10/10 03:18:19;;;;;;;18.92;5.32;;;;;;;;;;5146490;27;20251;-70
2023/10/10 03:21:07;;;;;;;15.73;5.43;;;;;;;;;;5147582;27;20197;-70
2023/10/10 03:23:35;;;;;;;18.45;5.82;;;;;;;;;;5137249;27;20218;-70
2023/10/10 03:26:06;;;;;;;23.52;6.60;;;;;;;;;;5144397;27;20218;-70
2023/10/10 03:28:35;;;;;;;12.77;5.55;;;;;;;;;;5147518;27;20700;-70
2023/10/10 03:31:07;;;;;;;13.50;5.85;;;;;;;;;;5146754;27;20202;-70
2023/10/10 03:33:36;;;;;;;17.98;6.15;;;;;;;;;;5144020;27;20218;-70
2023/10/10 03:36:13;;;;;;;13.00;5.68;;;;;;;;;;5144272;27;20594;-70
2023/10/10 05:23:29;;;;;;;14.25;5.82;;;;;;;;;;5143666;27;20205;-70
2023/10/10 05:25:31;;;;;;;12.50;4.75;;;;;;;;;;5144286;27;20363;-64
2023/10/10 05:27:58;;;;;;;13.10;4.72;;;;;;;;;;5144987;27;20564;-64
2023/10/10 05:30:25;;;;;;;13.40;4.82;;;;;;;;;;5142382;27;20200;-64
2023/10/10 05:33:00;;;;;;;12.75;4.72;;;;;;;;;;5141630;27;20251;-64
2023/10/10 05:35:27;;;;;;;12.38;4.70;;;;;;;;;;5144037;27;20236;-63
2023/10/10 05:37:55;;;;;;;9.63;4.78;;;;;;;;;;5145022;27;20196;-64
2023/10/10 05:40:21;;;;;;;13.82;5.38;;;;;;;;;;5143083;27;20250;-64
2023/10/10 05:42:47;;;;;;;7.85;4.45;;;;;;;;;;5141192;27;20198;-64
2023/10/10 05:45:14;;;;;;;14.50;5.57;;;;;;;;;;5141411;27;20217;-64
2023/10/10 05:47:40;;;;;;;14.35;5.40;;;;;;;;;;5144637;27;20194;-64
2023/10/10 05:50:10;;;;;;;9.63;5.15;;;;;;;;;;5144622;27;20193;-63
2023/10/10 05:52:38;;;;;;;14.95;5.88;;;;;;;;;;5132813;27;20226;-64
2023/10/10 05:55:06;;;;;;;12.82;5.82;;;;;;;;;;5140922;27;20273;-64
2023/10/10 05:57:33;;;;;;;17.13;5.65;;;;;;;;;;5143900;27;20201;-64
2023/10/10 06:00:00;;;;;;;14.45;6.20;;;;;;;;;;5144124;27;20574;-63
2023/10/10 06:02:27;;;;;;;15.55;5.75;;;;;;;;;;5142645;27;20206;-64
2023/10/10 06:04:53;;;;;;;27.27;7.45;;;;;;;;;;5140982;27;20233;-64
2023/10/10 06:07:20;;;;;;;21.55;7.10;;;;;;;;;;5141816;27;20702;-64
2023/10/10 06:09:51;;;;;;;30.27;8.88;;;;;;;;;;5143944;27;20229;-64
2023/10/10 06:12:19;;;;;;;25.17;8.30;;;;;;;;;;5143605;27;20196;-64
2023/10/10 06:14:46;;;;;;;28.85;8.38;;;;;;;;;;5136790;27;20221;-64
2023/10/10 06:17:13;;;;;;;25.25;9.05;;;;;;;;;;5144605;27;20221;-64
2023/10/10 06:19:45;;;;;;;23.33;7.60;;;;;;;;;;5136702;27;20203;-64
2023/10/10 06:22:15;;;;;;;26.00;8.38;;;;;;;;;;5144516;27;20197;-64
2023/10/10 06:24:41;;;;;;;29.98;9.40;;;;;;;;;;5132448;27;20210;-64
2023/10/10 06:27:09;;;;;;;20.63;6.50;;;;;;;;;;5140580;27;20694;-64
2023/10/10 06:29:40;;;;;;;20.52;7.32;;;;;;;;;;5143536;27;20217;-64
2023/10/10 06:32:10;;;;;;;25.02;7.60;;;;;;;;;;5144446;27;20202;-64
2023/10/10 06:34:36;;;;;;;22.10;7.20;;;;;;;;;;5141418;27;20628;-64
2023/10/10 06:37:07;;;;;;;21.00;7.88;;;;;;;;;;5140843;27;20214;-64
2023/10/10 06:39:34;;;;;;;22.15;7.18;;;;;;;;;;5142905;27;20198;-65
2023/10/10 06:42:03;;;;;;;28.35;7.55;;;;;;;;;;5128675;27;20551;-66
2023/10/10 06:44:33;;;;;;;23.77;7.78;;;;;;;;;;5136147;27;20221;-65
2023/10/10 06:47:08;;;;;;;28.02;8.10;;;;;;;;;;5130684;27;20217;-66
2023/10/10 06:49:43;;;;;;;21.55;8.30;;;;;;;;;;5137282;27;20205;-66
2023/10/10 06:52:10;;;;;;;16.40;7.35;;;;;;;;;;5127153;27;20233;-66
2023/10/10 06:54:44;;;;;;;30.95;8.13;;;;;;;;;;5126871;27;20660;-66
2023/10/10 06:57:17;;;;;;;17.77;6.65;;;;;;;;;;5127820;27;20245;-65
2023/10/10 06:59:43;;;;;;;23.50;7.50;;;;;;;;;;5119848;27;20206;-65
2023/10/10 07:02:20;;;;;;;19.85;7.15;;;;;;;;;;5128221;27;20205;-66
2023/10/10 07:04:52;;;;;;;32.33;7.47;;;;;;;;;;5124216;27;20214;-65
2023/10/10 07:07:18;;;;;;;19.23;7.47;;;;;;;;;;5124661;27;20210;-66
2023/10/10 07:09:45;;;;;;;29.75;8.13;;;;;;;;;;5124158;27;20206;-66
2023/10/10 07:12:13;;;;;;;21.88;7.65;;;;;;;;;;5132179;27;20206;-66
2023/10/10 07:14:43;;;;;;;20.98;7.53;;;;;;;;;;5134186;27;20246;-64
2023/10/10 07:17:12;;;;;;;21.67;7.25;;;;;;;;;;5126326;27;20218;-66
2023/10/10 07:19:55;;;;;;;21.77;6.95;;;;;;;;;;5130378;27;20274;-65
2023/10/10 07:22:21;;;;;;;27.38;7.60;;;;;;;;;;5127375;27;20220;-66
2023/10/10 07:24:48;;;;;;;22.15;6.82;;;;;;;;;;5132840;27;20209;-65
2023/10/10 07:27:18;;;;;;;21.58;7.18;;;;;;;;;;5133450;27;20218;-66
2023/10/10 07:29:58;;;;;;;20.70;7.63;;;;;;;;;;5137334;27;20216;-67
2023/10/10 07:32:29;;;;;;;21.42;8.30;;;;;;;;;;5135945;27;20301;-67
2023/10/10 07:34:55;;;;;;;25.02;7.35;;;;;;;;;;5135855;27;20209;-67
2023/10/10 07:37:22;;;;;;;31.67;8.88;;;;;;;;;;5126542;27;20210;-67
2023/10/10 07:40:08;;;;;;;21.33;7.82;;;;;;;;;;5135025;27;20297;-67
2023/10/10 07:42:37;;;;;;;23.50;7.68;;;;;;;;;;5137354;27;20212;-67
2023/10/10 07:45:13;;;;;;;25.05;8.25;;;;;;;;;;5130275;27;20219;-67
2023/10/10 07:50:35;;;;;;;18.02;7.40;;;;;;;;;;5080449;27;20639;-67
2023/10/10 07:53:05;;;;;;;26.23;8.90;;;;;;;;;;5072062;28;20302;-67
2023/10/10 07:55:51;;;;;;;24.10;7.95;;;;;;;;;;5071605;28;20250;-67
2023/10/10 07:58:17;;;;;;;21.52;7.65;;;;;;;;;;5080065;28;20203;-67
2023/10/10 08:00:44;;;;;;;29.65;7.95;;;;;;;;;;5079868;28;20200;-67
2023/10/10 08:03:19;;;;;;;26.90;7.97;;;;;;;;;;5079591;28;20222;-67
2023/10/10 08:05:48;;;;;;;18.52;7.15;;;;;;;;;;5080002;28;20719;-67
2023/10/10 08:08:15;;;;;;;21.33;7.45;;;;;;;;;;5080348;28;20765;-68
2023/10/10 08:10:43;;;;;;;26.23;7.65;;;;;;;;;;5079491;28;20208;-66
2023/10/10 08:13:10;;;;;;;24.10;7.55;;;;;;;;;;5080062;28;20765;-64
2023/10/10 08:15:48;;;;;;;22.08;6.88;;;;;;;;;;5079897;28;20304;-64
2023/10/10 08:18:15;;;;;;;20.08;6.43;;;;;;;;;;5079456;28;20204;-66
2023/10/10 08:23:24;;;;;;;26.42;6.65;;;;;;;;;;5079764;28;20662;-66
2023/10/10 08:25:50;;;;;;;16.20;5.85;;;;;;;;;;5079136;28;20246;-65
2023/10/10 08:28:16;;;;;;;18.95;7.03;;;;;;;;;;5079783;28;20211;-63
2023/10/10 08:30:43;;;;;;;18.25;7.70;;;;;;;;;;5077219;28;20214;-63
2023/10/10 08:33:09;;;;;;;21.00;7.80;;;;;;;;;;5081287;28;20204;-62
2023/10/10 08:35:38;;;;;;;25.98;7.00;;;;;;;;;;5080421;28;20227;-65
2023/10/10 08:38:05;;;;;;;20.50;7.40;;;;;;;;;;5080438;28;20295;-66
2023/10/10 08:40:34;;;;;;;23.42;8.18;;;;;;;;;;5080227;28;20204;-66
2023/10/10 08:43:03;;;;;;;23.77;7.75;;;;;;;;;;5080966;28;20208;-66
2023/10/10 08:45:39;;;;;;;29.42;8.07;;;;;;;;;;5080246;28;20228;-66
2023/10/10 08:48:12;;;;;;;25.63;8.13;;;;;;;;;;5080759;28;20247;-65
2023/10/10 08:50:40;;;;;;;21.60;7.38;;;;;;;;;;5080170;28;20215;-64
2023/10/10 08:53:07;;;;;;;13.88;6.53;;;;;;;;;;5080456;28;20212;-65
2023/10/10 08:55:35;;;;;;;23.77;7.05;;;;;;;;;;5080557;28;20223;-65
2023/10/10 08:58:01;;;;;;;20.77;6.88;;;;;;;;;;5080832;28;20208;-65
2023/10/10 09:00:27;;;;;;;25.52;7.05;;;;;;;;;;5074962;28;20215;-64
2023/10/10 09:02:54;;;;;;;25.95;7.10;;;;;;;;;;5066614;28;20764;-63
2023/10/10 09:05:23;;;;;;;24.05;7.03;;;;;;;;;;5067008;28;20795;-65
2023/10/10 09:07:49;;;;;;;20.80;6.60;;;;;;;;;;5067630;28;20212;-65
2023/10/10 09:10:16;;;;;;;17.40;6.32;;;;;;;;;;5066770;28;20212;-64
2023/10/10 09:12:58;;;;;;;18.90;6.45;;;;;;;;;;5059466;28;20212;-64
2023/10/10 09:15:24;;;;;;;17.70;7.47;;;;;;;;;;5062687;28;20231;-63
2023/10/10 09:17:55;;;;;;;22.85;6.53;;;;;;;;;;5066882;28;20208;-65
2023/10/10 09:20:28;;;;;;;21.08;6.75;;;;;;;;;;5066784;28;20204;-68
2023/10/10 09:22:58;;;;;;;17.45;6.43;;;;;;;;;;5067162;28;20304;-68
2023/10/10 09:25:26;;;;;;;23.58;6.43;;;;;;;;;;5066948;28;20325;-68
2023/10/10 09:27:58;;;;;;;27.45;6.20;;;;;;;;;;5067062;28;20223;-68
2023/10/10 09:30:30;;;;;;;23.35;5.50;;;;;;;;;;5067109;28;20496;-68
2023/10/10 09:33:00;;;;;;;16.65;5.78;;;;;;;;;;5067524;28;20588;-68
2023/10/10 09:35:28;;;;;;;16.65;5.70;;;;;;;;;;5066935;28;20227;-65
2023/10/10 09:37:57;;;;;;;17.17;5.75;;;;;;;;;;5066746;28;20204;-65
2023/10/10 09:40:24;;;;;;;21.45;6.25;;;;;;;;;;5065935;28;20216;-64
2023/10/10 09:43:03;;;;;;;15.93;5.53;;;;;;;;;;5065649;28;20212;-66
2023/10/10 09:48:28;;;;;;;17.15;5.82;;;;;;;;;;5064836;28;20212;-66
2023/10/10 09:51:08;;;;;;;22.38;6.57;;;;;;;;;;5065753;28;20228;-67
2023/10/10 09:53:35;;;;;;;23.95;6.82;;;;;;;;;;5065715;28;20666;-67
2023/10/10 09:56:08;;;;;;;22.65;7.25;;;;;;;;;;5064493;28;20331;-66
2023/10/10 09:58:41;;;;;;;25.98;5.88;;;;;;;;;;5066054;28;20208;-66
2023/10/10 10:01:18;;;;;;;26.33;6.93;;;;;;;;;;5060275;28;20205;-66
2023/10/10 10:03:55;;;;;;;15.25;5.60;;;;;;;;;;5063287;28;20227;-66
2023/10/10 10:06:35;;;;;;;27.63;6.47;;;;;;;;;;5066289;28;20227;-66
2023/10/10 10:09:17;;;;;;;18.92;6.78;;;;;;;;;;5065727;28;20663;-67
2023/10/10 10:11:49;;;;;;;29.73;6.45;;;;;;;;;;5052279;28;20307;-66
2023/10/10 10:14:18;;;;;;;20.80;5.50;;;;;;;;;;5065646;28;20218;-66
2023/10/10 10:16:48;;;;;;;21.67;6.00;;;;;;;;;;5065232;28;20228;-67
2023/10/10 10:19:17;;;;;;;30.15;6.22;;;;;;;;;;5065798;28;20204;-66
2023/10/10 10:21:53;;;;;;;14.60;5.13;;;;;;;;;;5065632;28;20758;-66
2023/10/10 10:24:29;;;;;;;19.67;5.68;;;;;;;;;;5065216;28;20302;-66
2023/10/10 10:27:13;;;;;;;22.88;5.30;;;;;;;;;;5064958;28;20558;-66
2023/10/10 10:29:42;;;;;;;18.42;5.78;;;;;;;;;;5064844;28;20273;-66
2023/10/10 10:32:13;;;;;;;13.98;5.35;;;;;;;;;;5065183;28;20291;-66
2023/10/10 10:34:45;;;;;;;20.75;5.50;;;;;;;;;;5065207;28;20209;-67
2023/10/10 10:37:20;;;;;;;13.73;5.43;;;;;;;;;;5065387;28;20231;-66
2023/10/10 10:40:23;;;;;;;22.73;5.90;;;;;;;;;;5064467;28;20200;-67
2023/10/10 10:42:48;;;;;;;27.65;6.15;;;;;;;;;;5064995;28;20295;-67
2023/10/10 10:45:24;;;;;;;20.52;5.43;;;;;;;;;;5065500;28;20212;-66
2023/10/10 10:47:59;;;;;;;16.92;5.50;;;;;;;;;;5064910;28;20203;-66
2023/10/10 10:50:42;;;;;;;20.95;5.60;;;;;;;;;;5065082;28;20219;-67
2023/10/10 10:53:20;;;;;;;21.50;5.47;;;;;;;;;;5063824;28;20637;-67
2023/10/10 10:55:59;;;;;;;18.30;5.53;;;;;;;;;;5061690;28;20229;-67
2023/10/10 10:58:26;;;;;;;23.42;5.13;;;;;;;;;;5065353;28;20650;-66
2023/10/10 11:01:07;;;;;;;17.15;5.10;;;;;;;;;;5064198;28;20334;-66
2023/10/10 11:03:37;;;;;;;23.02;5.32;;;;;;;;;;5064528;28;20553;-66
2023/10/10 11:06:06;;;;;;;23.90;5.72;;;;;;;;;;5065281;28;20220;-66
2023/10/10 11:08:52;;;;;;;25.00;5.55;;;;;;;;;;5064960;28;20262;-66
2023/10/10 11:11:36;;;;;;;25.02;5.90;;;;;;;;;;5064378;28;20691;-66
2023/10/10 11:14:09;;;;;;;22.75;5.85;;;;;;;;;;5064227;28;20204;-67
2023/10/10 11:16:37;;;;;;;19.65;5.30;;;;;;;;;;5064571;28;20288;-66
2023/10/10 11:19:12;;;;;;;16.73;5.40;;;;;;;;;;5064818;28;20204;-66
2023/10/10 11:21:47;;;;;;;18.70;4.97;;;;;;;;;;5061317;28;20675;-67
2023/10/10 11:24:23;;;;;;;23.63;5.88;;;;;;;;;;5055720;28;20302;-67
2023/10/10 11:26:50;;;;;;;19.52;4.95;;;;;;;;;;5060152;28;20251;-67
2023/10/10 11:29:21;;;;;;;20.85;5.53;;;;;;;;;;5060543;28;20208;-66
2023/10/10 11:31:49;;;;;;;21.60;5.90;;;;;;;;;;5060047;28;20298;-66
2023/10/10 11:34:42;;;;;;;20.58;5.63;;;;;;;;;;5060517;28;20208;-66
2023/10/10 11:37:13;;;;;;;22.48;4.88;;;;;;;;;;5060676;28;20234;-68
2023/10/10 11:39:46;;;;;;;14.02;4.28;;;;;;;;;;5059823;28;20295;-67
2023/10/10 11:42:14;;;;;;;17.70;5.18;;;;;;;;;;5059714;28;20680;-67
2023/10/10 11:44:41;;;;;;;18.55;5.40;;;;;;;;;;5061184;28;20564;-66
2023/10/10 11:47:21;;;;;;;19.48;4.80;;;;;;;;;;5060061;28;20323;-67
2023/10/10 11:50:00;;;;;;;15.63;5.18;;;;;;;;;;5060523;28;20234;-66
2023/10/10 11:52:27;;;;;;;18.48;5.57;;;;;;;;;;5053723;28;20215;-66
2023/10/10 11:54:54;;;;;;;25.13;5.47;;;;;;;;;;5059579;28;20214;-67
2023/10/10 11:57:21;;;;;;;18.17;5.50;;;;;;;;;;5060168;28;20285;-68
2023/10/10 11:59:47;;;;;;;15.57;5.38;;;;;;;;;;5059587;28;20291;-68
2023/10/10 12:02:16;;;;;;;17.50;5.45;;;;;;;;;;5055232;28;20236;-68
2023/10/10 12:04:44;;;;;;;19.63;5.13;;;;;;;;;;5060133;28;20298;-67
2023/10/10 12:07:14;;;;;;;15.90;4.90;;;;;;;;;;5059748;28;20227;-67
2023/10/10 12:09:44;;;;;;;16.40;5.13;;;;;;;;;;5059323;28;20257;-67
2023/10/10 12:12:11;;;;;;;23.60;5.07;;;;;;;;;;5060161;28;20310;-68
2023/10/10 12:14:38;;;;;;;27.75;5.25;;;;;;;;;;5060431;28;20204;-64
2023/10/10 12:17:06;;;;;;;23.48;5.07;;;;;;;;;;5057846;28;20223;-64
2023/10/10 12:19:36;;;;;;;25.77;5.10;;;;;;;;;;5059412;28;20302;-64
2023/10/10 12:22:07;;;;;;;24.13;5.22;;;;;;;;;;5059757;28;20263;-68
2023/10/10 12:24:36;;;;;;;19.23;4.90;;;;;;;;;;5059576;28;20208;-68
2023/10/10 12:27:06;;;;;;;19.95;5.70;;;;;;;;;;5060306;28;20219;-68
2023/10/10 12:29:33;;;;;;;23.13;5.50;;;;;;;;;;5059656;28;20295;-65
2023/10/10 12:32:09;;;;;;;27.58;5.22;;;;;;;;;;5059988;28;20208;-65
2023/10/10 12:34:35;;;;;;;24.42;5.30;;;;;;;;;;5060206;28;20691;-65
2023/10/10 12:37:01;;;;;;;20.58;5.38;;;;;;;;;;5062113;28;20547;-65
2023/10/10 12:39:28;;;;;;;10.93;5.25;;;;;;;;;;5063225;28;20200;-65
2023/10/10 12:41:56;;;;;;;22.70;5.78;;;;;;;;;;5063105;28;20203;-64
2023/10/10 12:44:23;;;;;;;20.85;5.75;;;;;;;;;;5063236;28;20215;-65
2023/10/10 12:46:54;;;;;;;19.15;5.30;;;;;;;;;;5062582;28;20465;-66
2023/10/10 12:49:28;;;;;;;14.98;6.10;;;;;;;;;;5062494;28;20565;-66
2023/10/10 12:51:54;;;;;;;15.13;5.93;;;;;;;;;;5064620;28;20304;-67
2023/10/10 12:54:21;;;;;;;18.60;6.28;;;;;;;;;;5067172;28;20303;-65
2023/10/10 12:56:54;;;;;;;21.83;6.20;;;;;;;;;;5067634;28;20267;-65
2023/10/10 12:59:28;;;;;;;19.77;6.55;;;;;;;;;;5065902;28;20212;-64
2023/10/10 13:01:56;;;;;;;23.00;7.18;;;;;;;;;;5067246;28;20215;-65
2023/10/10 13:04:28;;;;;;;16.92;6.95;;;;;;;;;;5067329;28;20577;-65
2023/10/10 13:06:55;;;;;;;14.48;6.22;;;;;;;;;;5067034;28;20329;-65
2023/10/10 13:09:22;;;;;;;20.60;7.18;;;;;;;;;;5066816;28;20224;-66
2023/10/10 13:11:48;;;;;;;15.82;7.50;;;;;;;;;;5067738;28;20216;-66
2023/10/10 13:14:18;;;;;;;18.77;7.03;;;;;;;;;;5066468;28;20219;-66
2023/10/10 13:17:13;;;;;;;18.13;6.60;;;;;;;;;;5066892;28;20652;-64
2023/10/10 13:19:40;;;;;;;13.80;6.95;;;;;;;;;;5067229;28;20235;-65
2023/10/10 13:22:07;;;;;;;13.55;6.22;;;;;;;;;;5066693;28;20230;-66
2023/10/10 13:24:33;;;;;;;15.48;6.45;;;;;;;;;;5066782;28;20211;-66
2023/10/10 13:26:59;;;;;;;18.30;6.05;;;;;;;;;;5067022;28;20448;-66
2023/10/10 13:29:25;;;;;;;20.27;6.78;;;;;;;;;;5066454;28;20625;-65
2023/10/10 13:31:53;;;;;;;17.38;6.05;;;;;;;;;;5066538;28;20243;-65
2023/10/10 13:34:22;;;;;;;17.98;6.63;;;;;;;;;;5066088;28;20738;-66
2023/10/10 13:36:49;;;;;;;18.92;6.32;;;;;;;;;;5066636;28;20698;-66
2023/10/10 13:39:18;;;;;;;14.50;5.88;;;;;;;;;;5065957;28;20325;-65
2023/10/10 13:41:44;;;;;;;18.23;6.25;;;;;;;;;;5071942;28;20287;-65
2023/10/10 13:44:11;;;;;;;16.75;6.05;;;;;;;;;;5073189;28;20664;-65
2023/10/10 13:46:37;;;;;;;16.15;5.93;;;;;;;;;;5072873;28;20258;-65
2023/10/10 13:49:08;;;;;;;11.98;5.57;;;;;;;;;;5072756;28;20214;-65
2023/10/10 13:51:39;;;;;;;20.20;6.30;;;;;;;;;;5073004;28;20215;-65
2023/10/10 13:54:06;;;;;;;15.68;6.05;;;;;;;;;;5073342;28;20200;-65
2023/10/10 13:56:32;;;;;;;14.48;5.75;;;;;;;;;;5073163;28;20247;-66
2023/10/10 13:59:29;;;;;;;16.02;5.68;;;;;;;;;;5073042;28;20208;-66
2023/10/10 14:01:58;;;;;;;16.35;6.10;;;;;;;;;;5069075;28;20567;-66
2023/10/10 14:04:27;;;;;;;13.93;6.22;;;;;;;;;;5073101;28;20454;-66
2023/10/10 14:06:54;;;;;;;14.18;6.15;;;;;;;;;;5072887;28;20241;-66
2023/10/10 14:09:24;;;;;;;15.15;5.97;;;;;;;;;;5072607;28;20269;-66
2023/10/10 14:11:51;;;;;;;17.85;6.30;;;;;;;;;;5072760;28;20219;-66
2023/10/10 14:14:18;;;;;;;14.55;6.30;;;;;;;;;;5072403;28;20219;-65
2023/10/10 14:16:44;;;;;;;17.50;6.47;;;;;;;;;;5072587;28;20592;-66
2023/10/10 14:19:10;;;;;;;16.02;5.50;;;;;;;;;;5072535;28;20204;-66
2023/10/10 14:21:38;;;;;;;16.85;5.95;;;;;;;;;;5072530;28;20204;-65
2023/10/10 14:24:07;;;;;;;16.15;5.72;;;;;;;;;;5073078;28;20223;-65
2023/10/10 14:26:35;;;;;;;14.10;6.32;;;;;;;;;;5072676;28;20224;-66
2023/10/10 14:29:05;;;;;;;15.30;6.38;;;;;;;;;;5072583;28;20643;-66
2023/10/10 14:31:32;;;;;;;16.20;6.00;;;;;;;;;;5064950;28;20207;-66
2023/10/10 14:34:00;;;;;;;15.45;6.32;;;;;;;;;;5072738;28;20198;-66
2023/10/10 14:36:27;;;;;;;12.77;5.70;;;;;;;;;;5072415;28;20631;-66
2023/10/10 14:38:56;;;;;;;16.95;5.82;;;;;;;;;;5072514;28;20219;-66
2023/10/10 14:41:23;;;;;;;16.48;6.30;;;;;;;;;;5071987;28;20192;-66
2023/10/10 14:43:50;;;;;;;14.10;6.05;;;;;;;;;;5072545;28;20200;-66
2023/10/10 14:46:21;;;;;;;18.65;5.93;;;;;;;;;;5072327;28;20216;-66
2023/10/10 14:48:47;;;;;;;11.57;5.80;;;;;;;;;;5072431;28;20441;-66
2023/10/10 14:51:17;;;;;;;14.38;6.13;;;;;;;;;;5071888;28;20699;-66
2023/10/10 14:53:43;;;;;;;15.45;5.80;;;;;;;;;;5072823;28;20192;-66
2023/10/10 14:56:19;;;;;;;19.48;6.05;;;;;;;;;;5072244;28;20219;-66
2023/10/10 14:58:48;;;;;;;11.43;6.30;;;;;;;;;;5071649;28;20682;-66
2023/10/10 15:01:17;;;;;;;14.70;6.25;;;;;;;;;;5071949;28;20245;-66
2023/10/10 15:03:44;;;;;;;12.65;5.45;;;;;;;;;;5072075;28;20345;-66
2023/10/10 15:06:10;;;;;;;14.25;5.72;;;;;;;;;;5071892;28;20216;-66
2023/10/10 15:08:37;;;;;;;14.23;6.25;;;;;;;;;;5071963;28;20287;-66
2023/10/10 15:11:06;;;;;;;17.67;6.75;;;;;;;;;;5071828;28;20220;-66
2023/10/10 15:13:35;;;;;;;16.38;7.20;;;;;;;;;;5063956;28;20249;-66
2023/10/10 15:16:01;;;;;;;12.25;6.50;;;;;;;;;;5072272;28;20587;-66
2023/10/10 15:18:28;;;;;;;15.07;6.10;;;;;;;;;;5071638;28;20688;-64
2023/10/10 15:20:57;;;;;;;14.70;6.40;;;;;;;;;;5059342;28;20867;-64
2023/10/10 15:23:25;;;;;;;14.68;6.20;;;;;;;;;;5049232;28;20216;-65
2023/10/10 15:25:54;;;;;;;16.77;6.40;;;;;;;;;;5056038;28;20949;-64
2023/10/10 15:28:21;;;;;;;15.65;6.25;;;;;;;;;;5071147;28;20199;-64
2023/10/10 15:30:49;;;;;;;16.52;6.63;;;;;;;;;;5070936;28;20710;-64
2023/10/10 15:33:31;;;;;;;13.05;6.35;;;;;;;;;;5071000;28;20202;-64
2023/10/10 15:35:59;;;;;;;16.73;6.63;;;;;;;;;;5071174;28;20223;-65
2023/10/10 15:38:29;;;;;;;10.52;6.00;;;;;;;;;;5071275;28;20249;-65
2023/10/10 15:40:55;;;;;;;15.20;5.97;;;;;;;;;;5068328;28;20258;-65
2023/10/10 15:43:21;;;;;;;14.00;5.85;;;;;;;;;;5068160;28;20208;-65
2023/10/10 15:45:49;;;;;;;16.40;6.32;;;;;;;;;;5068029;28;20727;-65
2023/10/10 15:48:25;;;;;;;15.07;5.85;;;;;;;;;;5068297;28;20195;-65
2023/10/10 15:50:52;;;;;;;14.20;5.78;;;;;;;;;;5068119;28;20196;-65
2023/10/10 15:53:20;;;;;;;14.43;6.07;;;;;;;;;;5068237;28;20196;-65
2023/10/10 15:55:49;;;;;;;15.55;6.97;;;;;;;;;;5070450;28;20215;-65
2023/10/10 15:58:16;;;;;;;14.38;6.88;;;;;;;;;;5071284;28;20200;-65
2023/10/10 16:00:43;;;;;;;16.27;6.15;;;;;;;;;;5071170;28;20208;-65
2023/10/10 16:03:12;;;;;;;20.20;6.95;;;;;;;;;;5071376;28;20665;-65
2023/10/10 16:05:41;;;;;;;17.02;6.70;;;;;;;;;;5071380;28;20211;-65
2023/10/10 16:08:08;;;;;;;14.80;6.60;;;;;;;;;;5071465;28;20191;-65
2023/10/10 16:10:34;;;;;;;14.98;6.75;;;;;;;;;;5071871;28;20279;-65
2023/10/10 16:13:01;;;;;;;12.07;5.70;;;;;;;;;;5075220;28;20700;-66
2023/10/10 16:15:28;;;;;;;14.20;6.72;;;;;;;;;;5075308;28;20231;-65
2023/10/10 16:17:54;;;;;;;13.77;6.50;;;;;;;;;;5075390;28;20204;-65
2023/10/10 16:20:23;;;;;;;16.92;7.03;;;;;;;;;;5075090;28;20941;-65
2023/10/10 16:22:49;;;;;;;16.65;7.35;;;;;;;;;;5075271;28;20228;-65
2023/10/10 16:25:15;;;;;;;18.50;7.07;;;;;;;;;;5075061;28;20227;-64
2023/10/10 16:27:42;;;;;;;19.75;7.10;;;;;;;;;;5075050;28;20205;-64
2023/10/10 16:30:10;;;;;;;16.48;7.20;;;;;;;;;;5075113;28;20193;-64
2023/10/10 16:32:37;;;;;;;23.42;8.63;;;;;;;;;;5074942;28;20216;-64
2023/10/10 16:35:05;;;;;;;19.00;7.93;;;;;;;;;;5074909;28;20201;-64
2023/10/10 16:37:36;;;;;;;16.95;7.40;;;;;;;;;;5074837;28;20210;-65
2023/10/10 16:40:03;;;;;;;17.33;8.18;;;;;;;;;;5074635;28;20211;-65
2023/10/10 16:42:30;;;;;;;20.65;7.93;;;;;;;;;;5074908;28;20196;-65